Главная страница
METAR-TAF:

METAR-TAF

Аэропорты :

Дакар, Сенегал

широта: 14-44N, долгота: 017-30W, высота над уровнем моря: 27 м

Текущие метеонаблюдения

Эта сводка был подготовлена 26 минут назад, в 21:00 UTC
Ветер 2 Узел от северно-северо-западный
Температура 28°C
Влажность 89%
Давление 1013 hPa
Видимость 10 км и более
Нет облачности ниже 1500 м, и нет кучево-дождевой облачности

METAR: GOOY 202100Z 33002KT CAVOK 28/26 Q1013 NOSIG

Время: 21:26 (21:26 UTC)

Прогноз

Эта сводка был подготовлена 3 часа и 56 минут назад, в 17:30 UTC
Прогноз действительный с 20-го 18 UTC до 21-го 24 UTC
Ветер 8 Узел от северно-северо-западный
Видимость: 8000 м

TAF: GOOY 201730Z 2018/2124 34008KT 8000 NSC

Метеонаблюдения и прогнозы для более 4000 аэропортов (сводки METAR и TAF).

Имеющиеся станции представлены на карте желтыми и красными точками.

Чтобы увидеть название станции, наведите на нее мышь.

Затем щелкните, чтобы увидеть метеонаблюдения и метеопрогнозы.

Управление картой: чтобы увеличить масштаб, щелкните зеленые кнопки с черным крестиком; чтобы уменьшить масштаб, щелкните зеленую кнопку с тире; для просмотра соседних карт щелкайте зеленые стрелки.


METAR-TAF: